Time;durP1;ratioP1;P1;durP2;ratioP2;P2;SDS_P1;SDS_P2;PMS_P1;PMS_P2;Temp;Humidity;BMP_temperature;BMP_pressure;BME280_temperature;BME280_humidity;BME280_pressure;Samples;Min_cycle;Max_cycle;Signal;HPM_P1;HPM_P2
2023/04/08 00:02:24;;;;;;;49.47;21.90;;;;;;;8.25;66.78;100366.59;10262342;28;20042;-61
2023/04/08 00:07:26;;;;;;;57.72;22.67;;;;;;;8.20;66.83;100358.13;10274445;28;20050;-60
2023/04/08 00:12:27;;;;;;;60.17;23.65;;;;;;;8.15;67.13;100359.25;10263536;28;20510;-60
2023/04/08 00:17:29;;;;;;;54.55;23.27;;;;;;;8.14;67.06;100362.78;10270916;28;20054;-60
2023/04/08 00:22:31;;;;;;;49.05;22.92;;;;;;;8.16;67.05;100353.97;10264165;28;20050;-60
2023/04/08 00:27:33;;;;;;;50.15;24.45;;;;;;;8.11;67.05;100366.34;10272469;28;20043;-60
2023/04/08 00:32:35;;;;;;;56.53;25.40;;;;;;;8.09;67.17;100362.09;10257421;28;20035;-60
2023/04/08 00:37:37;;;;;;;46.85;21.65;;;;;;;8.04;67.05;100363.13;10273485;28;20058;-60
2023/04/08 00:42:39;;;;;;;55.53;24.92;;;;;;;8.01;67.22;100365.03;10258238;28;20049;-60
2023/04/08 00:47:41;;;;;;;42.67;20.90;;;;;;;8.00;67.37;100366.78;10264695;28;20054;-60
2023/04/08 00:52:43;;;;;;;50.03;23.42;;;;;;;7.97;67.36;100366.91;10268079;28;20063;-60
2023/04/08 00:57:45;;;;;;;41.15;22.42;;;;;;;7.93;67.40;100364.50;10263114;28;20051;-60
2023/04/08 01:03:05;;;;;;;29.45;19.52;;;;;;;7.92;67.33;100366.25;10265952;28;20039;-60
2023/04/08 01:08:10;;;;;;;26.38;17.92;;;;;;;7.80;67.55;100373.72;10265336;28;20043;-60
2023/04/08 01:13:17;;;;;;;45.20;21.63;;;;;;;7.69;68.09;100374.16;10265022;28;20615;-60
2023/04/08 01:18:21;;;;;;;33.78;19.77;;;;;;;7.74;67.67;100376.59;10262760;28;20050;-60
2023/04/08 01:23:33;;;;;;;35.25;19.42;;;;;;;7.53;67.72;100380.91;10262479;28;20043;-61
2023/04/08 01:28:38;;;;;;;35.90;19.50;;;;;;;7.35;67.80;100381.63;10266106;28;20050;-60
2023/04/08 01:33:40;;;;;;;37.17;21.33;;;;;;;7.18;68.06;100389.25;10269217;28;20047;-60
2023/04/08 01:38:43;;;;;;;72.20;26.65;;;;;;;7.02;68.21;100382.97;10270457;28;20090;-60
2023/04/08 01:43:47;;;;;;;69.70;25.60;;;;;;;6.92;68.18;100381.59;10271816;28;20047;-60
2023/04/08 01:48:50;;;;;;;193.80;22.80;;;;;;;6.87;68.43;100379.19;10270247;28;20139;-60
2023/04/08 01:53:52;;;;;;;141.57;27.23;;;;;;;6.78;68.53;100378.66;10269588;28;20051;-60
2023/04/08 01:58:58;;;;;;;290.33;30.73;;;;;;;6.70;68.45;100378.09;10264940;28;20096;-60
2023/04/08 02:04:02;;;;;;;52.17;20.75;;;;;;;6.68;68.68;100385.09;10266370;28;20423;-60
2023/04/08 02:09:04;;;;;;;85.78;23.73;;;;;;;6.67;68.55;100378.22;10269033;28;20050;-60
2023/04/08 02:14:06;;;;;;;246.52;22.10;;;;;;;6.71;68.56;100377.19;10269573;28;20526;-60
2023/04/08 02:19:14;;;;;;;70.95;21.60;;;;;;;6.64;68.71;100376.56;10271337;28;20503;-60
2023/04/08 02:24:17;;;;;;;62.55;21.85;;;;;;;6.60;68.61;100379.34;10268850;28;20130;-60
2023/04/08 02:29:20;;;;;;;389.50;23.92;;;;;;;6.52;68.54;100383.97;10270635;28;20050;-60
2023/04/08 02:34:25;;;;;;;737.40;32.88;;;;;;;6.39;68.84;100390.50;10267801;28;20039;-60
2023/04/08 02:39:31;;;;;;;136.23;14.82;;;;;;;6.16;68.95;100386.09;10270941;28;20117;-60
2023/04/08 02:44:33;;;;;;;36.38;15.20;;;;;;;6.04;69.01;100395.13;10269149;28;20422;-60
2023/04/08 02:49:37;;;;;;;363.23;19.15;;;;;;;5.76;68.92;100391.75;10268320;28;20047;-60
2023/04/08 02:54:38;;;;;;;844.53;24.90;;;;;;;5.49;69.26;100406.47;10269372;28;20047;-60
2023/04/08 02:59:40;;;;;;;812.03;26.02;;;;;;;5.29;69.67;100414.00;10283511;28;20631;-60
2023/04/08 03:04:42;;;;;;;788.20;31.25;;;;;;;5.35;69.75;100418.19;10267285;28;20046;-60
2023/04/08 03:09:44;;;;;;;914.47;41.25;;;;;;;5.40;69.53;100424.91;10261940;28;20117;-60
2023/04/08 03:14:47;;;;;;;743.40;32.58;;;;;;;5.40;69.39;100429.25;10260346;28;20311;-60
2023/04/08 03:19:48;;;;;;;888.63;39.50;;;;;;;5.10;69.28;100431.03;10260488;28;20047;-60
2023/04/08 03:24:50;;;;;;;455.98;22.65;;;;;;;5.08;69.22;100424.19;10260399;28;20042;-60
2023/04/08 03:29:52;;;;;;;485.20;22.02;;;;;;;5.18;69.27;100426.47;10264311;28;20413;-60
2023/04/08 03:34:54;;;;;;;751.45;28.80;;;;;;;5.19;69.07;100438.53;10264659;28;20063;-60
2023/04/08 03:39:56;;;;;;;645.33;29.02;;;;;;;5.11;69.08;100450.00;10266567;28;20050;-60
2023/04/08 03:44:58;;;;;;;778.75;38.03;;;;;;;4.96;69.13;100450.47;10266653;28;20046;-60
2023/04/08 03:49:59;;;;;;;748.70;37.38;;;;;;;4.94;69.13;100452.25;10290141;28;20463;-60
2023/04/08 03:55:01;;;;;;;559.53;27.35;;;;;;;4.75;69.54;100451.06;10262934;28;20166;-60
2023/04/08 04:00:03;;;;;;;545.45;27.38;;;;;;;4.82;69.57;100452.59;10258478;28;20170;-60
2023/04/08 04:05:12;;;;;;;645.83;31.40;;;;;;;4.68;69.20;100455.56;10260486;28;20049;-60
2023/04/08 04:10:14;;;;;;;535.72;27.92;;;;;;;4.49;69.02;100452.66;10257517;28;20047;-60
2023/04/08 04:15:16;;;;;;;315.13;11.52;;;;;;;4.44;69.18;100453.63;10258386;28;20353;-60
2023/04/08 04:20:18;;;;;;;243.93;15.15;;;;;;;4.42;69.14;100442.47;10258495;28;20076;-60
2023/04/08 04:25:19;;;;;;;342.42;19.50;;;;;;;4.14;69.00;100457.88;10259786;28;20047;-60
2023/04/08 04:30:22;;;;;;;536.33;27.67;;;;;;;4.01;69.32;100472.00;10259592;28;20392;-60
2023/04/08 04:35:23;;;;;;;493.77;19.20;;;;;;;4.06;69.38;100470.16;10258337;28;20335;-60
2023/04/08 04:40:25;;;;;;;468.85;22.77;;;;;;;4.29;69.46;100480.78;10258213;28;20038;-60
2023/04/08 04:45:27;;;;;;;107.63;10.60;;;;;;;4.52;69.36;100475.84;10257334;28;20388;-60
2023/04/08 04:50:29;;;;;;;131.98;10.95;;;;;;;4.64;69.03;100470.34;10259135;28;20051;-60
2023/04/08 04:55:31;;;;;;;108.40;14.65;;;;;;;4.68;69.01;100474.56;10259606;28;20072;-61
2023/04/08 05:00:33;;;;;;;68.93;15.45;;;;;;;4.81;68.69;100475.06;10257415;28;20410;-61
2023/04/08 05:05:35;;;;;;;19.77;11.48;;;;;;;4.84;68.38;100476.72;10257365;28;20301;-61
2023/04/08 05:10:39;;;;;;;382.90;17.42;;;;;;;4.67;68.24;100472.88;10279443;28;20043;-60
2023/04/08 05:15:41;;;;;;;33.78;12.55;;;;;;;4.70;68.31;100480.53;10256428;28;20051;-60
2023/04/08 05:20:42;;;;;;;53.35;12.55;;;;;;;4.80;68.50;100485.47;10259475;28;20080;-60
2023/04/08 05:25:44;;;;;;;281.42;17.63;;;;;;;4.83;67.98;100485.38;10259193;28;20403;-61
2023/04/08 05:30:50;;;;;;;697.60;36.58;;;;;;;4.83;68.12;100487.97;10258687;28;20238;-60
2023/04/08 05:35:52;;;;;;;35.60;14.15;;;;;;;4.97;68.41;100493.63;10278974;28;20507;-60
2023/04/08 05:40:54;;;;;;;13.65;8.77;;;;;;;5.10;68.41;100495.84;10297207;28;20069;-60
2023/04/08 05:45:56;;;;;;;28.13;13.35;;;;;;;5.23;67.92;100491.13;10291123;28;20057;-61
2023/04/08 05:50:58;;;;;;;63.47;16.05;;;;;;;5.18;67.75;100495.63;10272797;28;20142;-60
2023/04/08 05:56:00;;;;;;;655.78;39.60;;;;;;;5.16;67.72;100498.25;10269038;28;20426;-61
2023/04/08 06:01:02;;;;;;;1040.03;28.48;;;;;;;4.94;67.99;100509.28;10277240;28;21103;-61
2023/04/08 06:06:10;;;;;;;263.52;17.85;;;;;;;5.21;68.09;100516.25;10262145;28;20051;-61
2023/04/08 06:11:12;;;;;;;426.38;26.60;;;;;;;5.53;67.59;100508.41;10258542;28;20046;-60
2023/04/08 06:16:18;;;;;;;246.18;16.50;;;;;;;5.83;67.19;100496.22;10257573;28;20062;-61
2023/04/08 06:21:22;;;;;;;118.00;14.65;;;;;;;6.05;66.60;100499.84;10257076;28;20212;-61
2023/04/08 06:26:25;;;;;;;495.02;15.38;;;;;;;6.12;66.63;100509.97;10264706;28;20876;-61
2023/04/08 06:31:27;;;;;;;1115.65;33.75;;;;;;;6.00;66.65;100517.31;10253267;28;20043;-61
2023/04/08 06:36:29;;;;;;;759.45;28.50;;;;;;;5.56;67.31;100521.28;10256926;28;20379;-61
2023/04/08 06:41:31;;;;;;;603.50;20.88;;;;;;;5.37;67.39;100530.50;10266157;28;20043;-60
2023/04/08 06:46:50;;;;;;;880.25;35.78;;;;;;;5.32;67.47;100527.19;10270069;28;20050;-61
2023/04/08 06:51:52;;;;;;;164.27;13.40;;;;;;;5.66;66.98;100517.50;10258351;28;20059;-61
2023/04/08 06:56:54;;;;;;;494.92;24.73;;;;;;;5.93;66.66;100534.84;10259376;28;20356;-60
2023/04/08 07:01:56;;;;;;;213.55;23.77;;;;;;;6.02;66.79;100531.09;10255243;28;20047;-61
2023/04/08 07:06:58;;;;;;;205.32;24.23;;;;;;;6.03;66.51;100535.38;10257571;28;20562;-61
2023/04/08 07:12:00;;;;;;;305.17;19.00;;;;;;;5.96;66.74;100552.91;10259925;28;20053;-62
2023/04/08 07:17:01;;;;;;;57.50;13.82;;;;;;;6.02;66.54;100560.50;10260259;28;20049;-62
2023/04/08 07:22:03;;;;;;;24.58;14.68;;;;;;;6.28;66.30;100565.78;10256441;28;20039;-62
2023/04/08 07:27:05;;;;;;;13.93;11.50;;;;;;;6.73;65.71;100570.34;10284824;28;20525;-62
2023/04/08 07:32:07;;;;;;;22.85;16.45;;;;;;;6.89;65.08;100568.91;10262170;28;20047;-62
2023/04/08 07:37:09;;;;;;;14.65;11.95;;;;;;;6.83;65.18;100562.19;10269934;28;20211;-62
2023/04/08 07:42:11;;;;;;;16.67;12.27;;;;;;;6.93;65.00;100570.50;10286304;28;20165;-62
2023/04/08 07:47:13;;;;;;;14.38;11.88;;;;;;;6.97;64.70;100562.56;10270746;28;20122;-62
2023/04/08 07:52:15;;;;;;;17.38;13.55;;;;;;;7.19;64.78;100567.84;10281909;28;20681;-62
2023/04/08 07:57:16;;;;;;;15.70;12.50;;;;;;;7.29;64.64;100568.34;10277084;28;20521;-61
2023/04/08 08:02:19;;;;;;;13.55;11.40;;;;;;;7.53;64.26;100572.66;10264135;28;20398;-62
2023/04/08 08:07:21;;;;;;;20.40;15.13;;;;;;;7.57;64.56;100569.03;10296881;28;20046;-62
2023/04/08 08:12:22;;;;;;;19.38;13.18;;;;;;;7.75;64.25;100570.97;10302290;28;20427;-62
2023/04/08 08:17:28;;;;;;;15.50;12.57;;;;;;;8.01;63.85;100573.41;10269002;28;20081;-62
2023/04/08 08:22:30;;;;;;;18.17;13.52;;;;;;;8.16;64.11;100572.00;10263778;28;20570;-62
2023/04/08 08:27:33;;;;;;;18.70;14.52;;;;;;;8.33;63.78;100582.56;10285761;28;20051;-62
2023/04/08 08:32:35;;;;;;;16.73;13.95;;;;;;;8.36;63.68;100578.09;10266150;28;20051;-62
2023/04/08 08:37:37;;;;;;;17.25;14.25;;;;;;;8.36;63.23;100583.31;10262565;28;20054;-62
2023/04/08 08:42:39;;;;;;;19.00;14.50;;;;;;;8.38;63.53;100588.47;10261153;28;20054;-62
2023/04/08 08:47:40;;;;;;;18.08;14.35;;;;;;;8.26;63.47;100596.78;10298821;28;20038;-62
2023/04/08 08:52:51;;;;;;;17.13;14.77;;;;;;;8.24;63.56;100599.41;10266481;28;20050;-62
2023/04/08 08:57:53;;;;;;;19.60;16.00;;;;;;;8.29;63.46;100607.06;10265568;28;20057;-62
2023/04/08 09:02:55;;;;;;;20.13;15.73;;;;;;;8.40;63.09;100616.16;10263680;28;20391;-61
2023/04/08 09:07:57;;;;;;;20.75;16.48;;;;;;;8.63;62.54;100615.19;10267271;28;20066;-62
2023/04/08 09:12:59;;;;;;;19.95;16.33;;;;;;;9.08;62.22;100615.91;10271294;28;20047;-62
2023/04/08 09:18:01;;;;;;;19.98;16.52;;;;;;;9.45;61.72;100615.16;10302719;28;20047;-62
2023/04/08 09:23:03;;;;;;;19.30;14.82;;;;;;;9.61;61.66;100617.00;10302593;28;20038;-62
2023/04/08 09:28:18;;;;;;;18.48;15.82;;;;;;;9.93;61.11;100623.41;10280273;28;20057;-62
2023/04/08 09:33:29;;;;;;;20.92;17.38;;;;;;;10.14;60.54;100624.19;10270019;28;20137;-62
2023/04/08 09:38:31;;;;;;;;;;;;;;;10.13;61.19;100625.13;10271167;28;20537;-62
2023/04/08 09:43:39;;;;;;;19.60;15.80;;;;;;;10.67;59.77;100621.59;10292123;28;19926;-62
2023/04/08 09:48:49;;;;;;;20.02;16.85;;;;;;;11.04;57.93;100616.25;10297269;28;20049;-62
2023/04/08 09:53:59;;;;;;;18.60;15.65;;;;;;;11.11;57.76;100615.88;10305890;28;20530;-62
2023/04/08 09:59:09;;;;;;;;;;;;;;;10.49;58.44;100612.91;10269557;28;20495;-63
2023/04/08 10:04:19;;;;;;;20.35;15.38;;;;;;;10.82;58.97;100624.31;10267561;28;20451;-62
2023/04/08 10:09:22;;;;;;;19.75;16.58;;;;;;;10.96;59.16;100619.25;10269188;28;20509;-62
2023/04/08 10:14:27;;;;;;;19.58;16.20;;;;;;;11.32;57.97;100621.78;10279287;28;20058;-62
2023/04/08 10:19:40;;;;;;;17.90;15.80;;;;;;;11.29;56.96;100622.78;10296478;28;20399;-62
2023/04/08 10:25:17;;;;;;;23.50;17.13;;;;;;;11.07;56.68;100623.97;10300337;28;20055;-62
2023/04/08 10:30:24;;;;;;;22.30;17.75;;;;;;;10.94;57.52;100617.63;10269350;28;20047;-62
2023/04/08 10:35:31;;;;;;;19.45;15.30;;;;;;;11.10;57.00;100618.56;10284111;28;20046;-62
2023/04/08 10:40:38;;;;;;;18.20;14.90;;;;;;;11.20;56.42;100617.16;10307781;28;20129;-62
2023/04/08 10:45:40;;;;;;;17.27;14.75;;;;;;;11.29;56.06;100614.91;10277138;28;20042;-62
2023/04/08 10:50:59;;;;;;;16.02;13.63;;;;;;;11.60;55.13;100610.72;10266661;28;20055;-62
2023/04/08 10:56:05;;;;;;;18.08;14.15;;;;;;;11.46;53.47;100610.59;10280367;28;20517;-62
2023/04/08 11:01:07;;;;;;;18.90;13.60;;;;;;;11.61;53.74;100609.78;10267055;28;20054;-62
2023/04/08 11:06:10;;;;;;;15.98;13.38;;;;;;;11.78;53.87;100609.72;10265552;28;20138;-62
2023/04/08 11:11:11;;;;;;;14.02;12.52;;;;;;;12.19;52.50;100604.84;10292538;28;20708;-62
2023/04/08 11:16:14;;;;;;;15.30;12.45;;;;;;;12.32;51.84;100611.97;10279954;28;20415;-62
2023/04/08 11:21:21;;;;;;;14.57;11.32;;;;;;;12.17;51.28;100606.72;10305172;28;20046;-62
2023/04/08 11:26:24;;;;;;;13.23;10.80;;;;;;;12.54;49.72;100609.81;10305078;28;20459;-61
2023/04/08 11:31:26;;;;;;;12.02;10.18;;;;;;;12.79;49.38;100602.22;10258108;28;20047;-61
2023/04/08 11:36:29;;;;;;;11.93;9.73;;;;;;;13.05;48.62;100605.94;10256859;28;20053;-61
2023/04/08 11:41:38;;;;;;;11.57;9.00;;;;;;;13.33;46.25;100599.91;10267636;28;20226;-61
2023/04/08 11:46:41;;;;;;;11.95;9.40;;;;;;;13.25;46.43;100604.78;10264577;28;20343;-61
2023/04/08 11:51:59;;;;;;;11.98;9.77;;;;;;;13.26;44.97;100603.81;10253856;28;20090;-61
2023/04/08 11:57:01;;;;;;;12.40;9.48;;;;;;;12.96;46.37;100598.63;10263087;28;20389;-61
2023/04/08 12:02:04;;;;;;;11.93;9.02;;;;;;;12.94;46.48;100603.94;10287910;28;20047;-61
2023/04/08 12:07:06;;;;;;;12.23;8.98;;;;;;;13.04;46.35;100603.41;10277933;28;20046;-61
2023/04/08 12:12:07;;;;;;;10.27;8.73;;;;;;;12.88;46.25;100606.94;10257990;28;20047;-61
2023/04/08 12:17:09;;;;;;;11.20;9.95;;;;;;;13.24;46.22;100592.56;10262191;28;20497;-62
2023/04/08 12:22:11;;;;;;;14.57;10.20;;;;;;;13.39;46.16;100589.00;10262581;28;20045;-62
2023/04/08 12:27:15;;;;;;;13.30;10.70;;;;;;;13.51;45.55;100594.41;10283947;28;20051;-62
2023/04/08 12:32:17;;;;;;;11.77;9.60;;;;;;;13.85;44.61;100595.78;10264554;28;20043;-61
2023/04/08 12:37:21;;;;;;;11.00;8.82;;;;;;;14.07;44.91;100582.94;10260734;28;20362;-61
2023/04/08 12:42:23;;;;;;;11.73;9.07;;;;;;;14.17;44.80;100581.41;10265176;28;20122;-62
2023/04/08 12:47:25;;;;;;;12.68;9.48;;;;;;;14.35;44.52;100574.97;10266614;28;20053;-61
2023/04/08 12:52:27;;;;;;;9.25;7.68;;;;;;;14.57;44.87;100564.75;10269990;28;20066;-62
2023/04/08 12:57:30;;;;;;;10.05;8.40;;;;;;;14.68;44.21;100568.47;10286817;28;20046;-62
2023/04/08 13:02:32;;;;;;;12.48;8.18;;;;;;;14.37;43.22;100572.25;10271275;28;20415;-61
2023/04/08 13:07:34;;;;;;;9.95;7.45;;;;;;;13.83;44.52;100568.72;10270844;28;20088;-62
2023/04/08 13:12:38;;;;;;;11.00;7.90;;;;;;;13.45;45.81;100583.41;10288059;28;20050;-61
2023/04/08 13:17:41;;;;;;;9.98;7.93;;;;;;;13.36;46.48;100578.69;10307044;28;21241;-61
2023/04/08 13:22:42;;;;;;;10.38;8.32;;;;;;;13.35;46.18;100577.00;10281621;28;20586;-61
2023/04/08 13:27:44;;;;;;;10.38;8.40;;;;;;;13.61;45.37;100578.91;10270837;28;20051;-62
2023/04/08 13:32:46;;;;;;;11.93;8.10;;;;;;;13.93;45.14;100563.72;10285722;28;20083;-62
2023/04/08 13:37:48;;;;;;;12.07;8.70;;;;;;;13.66;44.51;100564.53;10269182;28;20054;-62
2023/04/08 13:42:50;;;;;;;11.38;8.90;;;;;;;13.86;44.68;100560.63;10265768;28;20060;-62
2023/04/08 13:47:52;;;;;;;9.60;8.38;;;;;;;13.92;44.59;100559.44;10272998;28;20532;-61
2023/04/08 13:52:54;;;;;;;10.38;8.40;;;;;;;13.97;44.96;100558.19;10308492;28;20117;-63
2023/04/08 13:57:55;;;;;;;10.98;7.70;;;;;;;13.87;45.21;100562.34;10270795;28;20055;-62
2023/04/08 14:02:57;;;;;;;11.45;7.30;;;;;;;13.77;45.32;100564.72;10281182;28;20237;-62
2023/04/08 14:07:59;;;;;;;9.82;6.80;;;;;;;13.43;45.84;100577.41;10269049;28;20045;-62
2023/04/08 14:13:01;;;;;;;10.63;7.30;;;;;;;13.11;46.53;100576.69;10288546;28;20045;-62
2023/04/08 14:18:02;;;;;;;9.20;6.80;;;;;;;12.96;46.49;100583.69;10309552;28;20060;-62
2023/04/08 14:23:04;;;;;;;8.18;7.10;;;;;;;12.92;47.46;100576.94;10285021;28;20441;-62
2023/04/08 14:28:06;;;;;;;9.32;7.30;;;;;;;12.98;47.10;100583.63;10274216;28;20461;-62
2023/04/08 14:33:08;;;;;;;9.80;7.28;;;;;;;13.01;47.31;100579.94;10276721;28;20070;-62
2023/04/08 14:38:13;;;;;;;9.45;7.70;;;;;;;13.05;47.13;100577.06;10268183;28;20528;-62
2023/04/08 14:43:14;;;;;;;10.23;7.40;;;;;;;13.14;46.85;100584.41;10263411;28;20038;-62
2023/04/08 14:48:17;;;;;;;15.60;7.57;;;;;;;12.78;47.89;100578.69;10275088;28;20137;-62
2023/04/08 14:53:18;;;;;;;8.85;7.22;;;;;;;12.76;48.60;100577.94;10263640;28;20051;-62
2023/04/08 14:58:20;;;;;;;8.88;6.90;;;;;;;12.84;48.02;100573.91;10264785;28;20198;-62
2023/04/08 15:03:22;;;;;;;8.52;6.90;;;;;;;13.11;48.31;100581.13;10265510;28;20570;-62
2023/04/08 15:08:30;;;;;;;7.65;6.47;;;;;;;13.26;48.37;100570.53;10263882;28;20054;-62
2023/04/08 15:13:34;;;;;;;9.80;6.85;;;;;;;13.71;47.79;100564.25;10263074;28;20047;-62
2023/04/08 15:18:36;;;;;;;9.05;7.30;;;;;;;13.46;47.54;100574.56;10269840;28;20050;-62
2023/04/08 15:23:40;;;;;;;9.40;6.82;;;;;;;13.13;47.59;100572.19;10267583;28;20526;-62
2023/04/08 15:28:42;;;;;;;8.43;7.13;;;;;;;13.03;47.88;100575.47;10261674;28;20419;-62
2023/04/08 15:33:44;;;;;;;9.48;7.07;;;;;;;13.27;47.90;100574.81;10264047;28;20058;-62
2023/04/08 15:38:48;;;;;;;8.63;6.90;;;;;;;13.16;48.06;100569.38;10259654;28;20141;-62
2023/04/08 15:43:51;;;;;;;9.13;7.00;;;;;;;13.41;48.34;100568.75;10260062;28;20058;-62
2023/04/08 15:48:53;;;;;;;8.82;6.68;;;;;;;13.19;48.59;100569.19;10260085;28;20487;-62
2023/04/08 15:53:56;;;;;;;9.07;6.15;;;;;;;13.15;48.98;100582.63;10263854;28;20141;-62
2023/04/08 15:58:58;;;;;;;7.65;5.85;;;;;;;13.15;48.26;100580.00;10266540;28;20045;-62
2023/04/08 16:04:00;;;;;;;7.78;6.05;;;;;;;13.21;48.96;100590.13;10272464;28;20979;-62
2023/04/08 16:09:02;;;;;;;8.20;6.60;;;;;;;13.08;48.41;100586.53;10264139;28;20445;-62
2023/04/08 16:14:04;;;;;;;9.55;6.28;;;;;;;12.95;49.41;100596.91;10260832;28;20138;-61
2023/04/08 16:19:06;;;;;;;7.43;5.82;;;;;;;12.93;49.11;100598.78;10263420;28;20158;-62
2023/04/08 16:24:08;;;;;;;6.55;5.38;;;;;;;12.94;49.08;100590.00;10258330;28;20058;-62
2023/04/08 16:29:10;;;;;;;6.93;4.93;;;;;;;12.95;49.86;100605.66;10260208;28;20168;-62
2023/04/08 16:34:12;;;;;;;7.88;5.13;;;;;;;12.67;49.67;100610.81;10272821;28;20047;-62
2023/04/08 16:39:13;;;;;;;5.82;4.28;;;;;;;12.33;50.05;100618.91;10265372;28;20054;-61
2023/04/08 16:44:15;;;;;;;6.55;4.07;;;;;;;12.20;49.99;100623.09;10256005;28;20463;-61
2023/04/08 16:49:17;;;;;;;5.72;4.25;;;;;;;12.19;50.30;100617.94;10258267;28;20067;-62
2023/04/08 16:54:19;;;;;;;7.80;3.80;;;;;;;12.11;50.13;100627.06;10261884;28;20113;-61
2023/04/08 16:59:21;;;;;;;5.45;4.07;;;;;;;12.11;51.02;100621.84;10255046;28;20684;-61
2023/04/08 17:04:23;;;;;;;5.85;4.50;;;;;;;12.16;51.44;100618.97;10267257;28;20047;-61
2023/04/08 17:09:24;;;;;;;5.80;4.20;;;;;;;12.15;51.42;100630.38;10251066;28;20046;-62
2023/04/08 17:14:26;;;;;;;7.30;4.50;;;;;;;12.09;52.18;100631.56;10252102;28;20049;-61
2023/04/08 17:19:28;;;;;;;5.88;4.82;;;;;;;12.08;52.81;100639.50;10261620;28;20051;-62
2023/04/08 17:24:30;;;;;;;6.10;4.80;;;;;;;12.02;52.76;100639.84;10258427;28;20054;-61
2023/04/08 17:29:32;;;;;;;6.95;5.18;;;;;;;12.00;53.25;100639.09;10268320;28;20054;-62
2023/04/08 17:34:34;;;;;;;7.45;5.32;;;;;;;11.97;52.87;100639.25;10284346;28;20077;-62
2023/04/08 17:39:39;;;;;;;9.95;5.53;;;;;;;11.93;53.25;100648.19;10271420;28;20268;-62
2023/04/08 17:44:41;;;;;;;8.13;5.28;;;;;;;11.88;53.31;100653.72;10268772;28;20043;-61
2023/04/08 17:49:43;;;;;;;9.32;5.93;;;;;;;11.85;53.56;100658.25;10270265;28;20051;-61
2023/04/08 17:54:45;;;;;;;7.85;5.80;;;;;;;11.78;54.39;100649.88;10269819;28;20522;-61
2023/04/08 17:59:46;;;;;;;8.25;6.50;;;;;;;11.71;54.07;100653.75;10268965;28;20058;-61
2023/04/08 18:04:49;;;;;;;7.75;6.28;;;;;;;11.65;54.19;100658.47;10268920;28;20089;-61
2023/04/08 18:09:51;;;;;;;8.63;6.45;;;;;;;11.40;54.31;100660.69;10269750;28;20451;-61
2023/04/08 18:14:53;;;;;;;9.35;6.80;;;;;;;11.32;55.04;100669.78;10269905;28;20411;-60
2023/04/08 18:19:57;;;;;;;10.43;6.75;;;;;;;11.25;55.41;100670.16;10268487;28;20051;-60
2023/04/08 18:24:58;;;;;;;8.85;6.80;;;;;;;11.08;54.43;100675.38;10271014;28;20194;-60
2023/04/08 18:30:00;;;;;;;9.95;7.93;;;;;;;10.97;54.53;100682.91;10263983;28;20404;-60
2023/04/08 18:35:02;;;;;;;10.07;7.80;;;;;;;10.77;54.78;100689.09;10263037;28;20113;-60
2023/04/08 18:40:06;;;;;;;13.57;8.88;;;;;;;10.72;55.40;100687.63;10263322;28;20038;-60
2023/04/08 18:45:08;;;;;;;12.10;8.95;;;;;;;10.53;54.93;100692.91;10265778;28;20039;-60
2023/04/08 18:50:09;;;;;;;11.88;8.10;;;;;;;10.33;55.53;100700.84;10266053;28;20043;-60
2023/04/08 18:55:12;;;;;;;11.45;8.13;;;;;;;10.33;55.36;100700.84;10265509;28;20466;-60
2023/04/08 19:00:14;;;;;;;9.88;7.85;;;;;;;10.25;55.56;100703.81;10286262;28;20616;-60
2023/04/08 19:05:16;;;;;;;9.40;7.88;;;;;;;10.13;55.75;100698.28;10265661;28;20035;-61
2023/04/08 19:10:19;;;;;;;11.93;8.98;;;;;;;10.11;55.70;100711.44;10260755;28;20053;-60
2023/04/08 19:15:21;;;;;;;11.73;8.80;;;;;;;10.03;56.00;100704.88;10267398;28;20145;-60
2023/04/08 19:20:24;;;;;;;11.80;8.80;;;;;;;10.01;56.12;100710.13;10265752;28;20051;-60
2023/04/08 19:25:26;;;;;;;10.23;8.85;;;;;;;9.93;56.41;100727.09;10266057;28;20309;-60
2023/04/08 19:30:27;;;;;;;11.48;8.75;;;;;;;9.86;57.17;100729.13;10290510;28;20054;-60
2023/04/08 19:35:29;;;;;;;10.90;9.05;;;;;;;9.92;57.10;100730.63;10277377;28;20482;-60
2023/04/08 19:40:31;;;;;;;11.80;8.98;;;;;;;9.88;57.14;100729.91;10279618;28;20047;-60
2023/04/08 19:45:33;;;;;;;11.55;9.45;;;;;;;9.82;56.78;100727.56;10265479;28;20046;-60
2023/04/08 19:50:38;;;;;;;11.45;9.27;;;;;;;9.72;56.75;100728.03;10281550;28;20522;-60
2023/04/08 19:55:40;;;;;;;13.68;9.85;;;;;;;9.62;56.86;100735.38;10280041;28;20050;-60
2023/04/08 20:00:42;;;;;;;14.07;10.77;;;;;;;9.47;57.36;100744.72;10274117;28;20054;-60
2023/04/08 20:05:46;;;;;;;14.15;10.75;;;;;;;9.41;57.24;100747.59;10269206;28;20046;-60
2023/04/08 20:10:48;;;;;;;12.45;10.40;;;;;;;9.39;57.22;100751.16;10289643;28;20423;-60
2023/04/08 20:15:51;;;;;;;13.70;11.15;;;;;;;9.30;57.63;100756.78;10264186;28;20476;-60
2023/04/08 20:20:53;;;;;;;13.15;10.27;;;;;;;9.19;58.14;100762.44;10279746;28;20055;-60
2023/04/08 20:25:55;;;;;;;13.48;10.02;;;;;;;9.38;57.89;100763.38;10267186;28;20043;-60
2023/04/08 20:30:57;;;;;;;12.88;10.45;;;;;;;9.41;57.56;100765.88;10277686;28;20051;-60
2023/04/08 20:35:59;;;;;;;14.43;9.82;;;;;;;9.44;57.09;100764.91;10267451;28;20053;-60
2023/04/08 20:41:01;;;;;;;8.55;6.95;;;;;;;9.37;56.71;100769.53;10268491;28;20337;-60
2023/04/08 20:46:03;;;;;;;9.77;6.07;;;;;;;9.36;55.51;100767.81;10263604;28;20047;-60
2023/04/08 20:51:05;;;;;;;7.80;5.72;;;;;;;9.27;54.23;100767.34;10273914;28;20055;-60
2023/04/08 20:56:07;;;;;;;7.75;5.38;;;;;;;9.25;54.22;100775.25;10268033;28;20225;-60
2023/04/08 21:01:09;;;;;;;7.20;5.53;;;;;;;9.15;53.70;100775.69;10291101;28;20069;-60
2023/04/08 21:06:19;;;;;;;7.82;5.90;;;;;;;9.31;53.30;100777.59;10284412;28;20042;-60
2023/04/08 21:11:21;;;;;;;8.65;5.55;;;;;;;9.27;53.43;100775.19;10288388;28;20499;-60
2023/04/08 21:16:22;;;;;;;7.38;5.65;;;;;;;9.41;53.29;100781.53;10270497;28;20283;-60
2023/04/08 21:21:25;;;;;;;8.32;5.97;;;;;;;9.50;52.10;100778.53;10272095;28;20043;-60
2023/04/08 21:26:27;;;;;;;8.00;6.00;;;;;;;9.51;52.45;100784.59;10291453;28;20165;-60
2023/04/08 21:31:29;;;;;;;9.50;5.50;;;;;;;9.63;53.15;100782.31;10277412;28;20388;-60
2023/04/08 21:36:31;;;;;;;6.63;5.38;;;;;;;9.68;52.64;100779.56;10272367;28;20043;-60
2023/04/08 21:41:32;;;;;;;7.72;5.70;;;;;;;9.67;53.02;100785.69;10268378;28;20381;-60
2023/04/08 21:46:34;;;;;;;9.40;6.28;;;;;;;9.74;52.66;100784.53;10268874;28;20467;-60
2023/04/08 21:51:37;;;;;;;9.07;6.20;;;;;;;9.80;52.18;100783.41;10288574;28;20690;-60
2023/04/08 21:56:39;;;;;;;9.07;6.15;;;;;;;9.80;52.23;100778.19;10282051;28;20051;-59
2023/04/08 22:01:41;;;;;;;8.30;6.55;;;;;;;9.47;53.07;100789.09;10290673;28;20054;-60
2023/04/08 22:06:43;;;;;;;7.75;6.00;;;;;;;9.39;53.05;100785.97;10274738;28;20138;-60
2023/04/08 22:11:45;;;;;;;6.22;5.10;;;;;;;9.39;53.81;100775.53;10261848;28;20050;-60
2023/04/08 22:16:47;;;;;;;9.45;5.80;;;;;;;9.22;53.04;100771.91;10265916;28;20158;-60
2023/04/08 22:21:50;;;;;;;7.88;5.95;;;;;;;9.27;53.11;100770.81;10265052;28;20418;-60
2023/04/08 22:26:52;;;;;;;7.30;6.10;;;;;;;9.23;53.02;100771.00;10258625;28;20713;-60
2023/04/08 22:31:54;;;;;;;8.52;6.43;;;;;;;9.18;53.18;100773.78;10276868;28;20050;-60
2023/04/08 22:36:56;;;;;;;9.57;7.32;;;;;;;9.16;53.32;100778.22;10261048;28;20384;-60
2023/04/08 22:41:57;;;;;;;11.35;6.90;;;;;;;9.11;53.08;100774.97;10266939;28;20063;-60
2023/04/08 22:46:59;;;;;;;9.95;7.00;;;;;;;9.04;53.61;100775.25;10267140;28;20140;-60
2023/04/08 22:52:01;;;;;;;9.10;6.93;;;;;;;9.05;53.23;100775.22;10278465;28;20325;-60
2023/04/08 22:57:03;;;;;;;7.43;6.20;;;;;;;8.92;53.39;100775.75;10267435;28;20053;-60
2023/04/08 23:02:05;;;;;;;8.57;6.55;;;;;;;8.81;53.38;100769.19;10266941;28;20043;-60